Time,TemperatureF,DewpointF,PressureIn,WindDirection,WindDirectionDegrees,WindSpeedMPH,WindSpeedGustMPH,Humidity,HourlyPrecipIn,Conditions,Clouds,dailyrainin,SoftwareType,DateUTC
2013-03-22 00:03:00,27.6,14.7,29.62,WNW,293,3.0,10.0,58,0.00,RA,,0.00,WeatherDisplay:10.37,2013-03-22 04:03:00,
2013-03-22 00:13:00,27.6,14.7,29.63,NW,308,6.0,9.0,58,0.00,OVC,,0.00,WeatherDisplay:10.37,2013-03-22 04:13:00,
2013-03-22 00:23:00,27.3,14.8,29.63,West,275,3.0,7.0,59,0.00,OVC,,0.00,WeatherDisplay:10.37,2013-03-22 04:23:00,
2013-03-22 00:33:00,27.2,15.1,29.63,NW,309,1.0,9.0,60,0.00,OVC,,0.00,WeatherDisplay:10.37,2013-03-22 04:33:00,
2013-03-22 00:43:00,27.0,15.3,29.63,NW,313,5.0,6.0,61,0.00,OVC,,0.00,WeatherDisplay:10.37,2013-03-22 04:43:00,
2013-03-22 00:53:00,27.2,15.1,29.63,WNW,289,3.0,12.0,60,0.00,OVC,,0.00,WeatherDisplay:10.37,2013-03-22 04:53:00,
2013-03-22 01:03:00,27.0,14.9,29.63,West,279,3.0,7.0,60,0.00,OVC,,0.00,WeatherDisplay:10.37,2013-03-22 05:03:00,
2013-03-22 01:13:00,26.9,15.6,29.63,WNW,284,5.0,7.0,62,0.00,OVC,,0.00,WeatherDisplay:10.37,2013-03-22 05:13:00,
2013-03-22 01:23:00,26.7,15.4,29.63,WNW,303,3.0,12.0,62,0.00,OVC,,0.00,WeatherDisplay:10.37,2013-03-22 05:23:00,
2013-03-22 01:33:00,26.7,15.8,29.63,WNW,295,5.0,12.0,63,0.00,OVC,,0.00,WeatherDisplay:10.37,2013-03-22 05:33:00,
2013-03-22 01:43:00,26.7,15.8,29.63,NW,321,2.0,12.0,63,0.00,OVC,,0.00,WeatherDisplay:10.37,2013-03-22 05:43:00,
2013-03-22 01:53:00,26.6,16.1,29.64,WNW,293,2.0,9.0,64,0.00,OVC,,0.00,WeatherDisplay:10.37,2013-03-22 05:53:00,
2013-03-22 02:03:00,26.4,15.9,29.64,West,279,7.0,12.0,64,0.00,BKN,,0.00,WeatherDisplay:10.37,2013-03-22 06:03:00,
2013-03-22 02:13:00,26.4,16.2,29.64,WNW,295,5.0,12.0,65,0.00,BKN,,0.00,WeatherDisplay:10.37,2013-03-22 06:13:00,
2013-03-22 02:23:00,26.3,16.5,29.64,WNW,287,3.0,9.0,66,0.00,BKN,,0.00,WeatherDisplay:10.37,2013-03-22 06:23:00,
2013-03-22 02:33:00,26.3,16.5,29.64,WNW,291,2.0,12.0,66,0.00,BKN,,0.00,WeatherDisplay:10.37,2013-03-22 06:33:00,
2013-03-22 02:43:00,26.1,16.3,29.64,NW,314,2.0,14.0,66,0.00,BKN,,0.00,WeatherDisplay:10.37,2013-03-22 06:43:00,
2013-03-22 02:53:00,26.0,16.2,29.63,WNW,298,2.0,10.0,66,0.00,BKN,,0.00,WeatherDisplay:10.37,2013-03-22 06:53:00,
2013-03-22 03:03:00,25.8,16.3,29.63,WNW,294,3.0,7.0,67,0.00,OVC,,0.00,WeatherDisplay:10.37,2013-03-22 07:03:00,
2013-03-22 03:13:00,25.7,16.3,29.63,NW,318,3.0,7.0,67,0.00,OVC,,0.00,WeatherDisplay:10.37,2013-03-22 07:13:00,
2013-03-22 03:23:00,25.5,16.1,29.63,NW,309,2.0,10.0,67,0.00,OVC,,0.00,WeatherDisplay:10.37,2013-03-22 07:23:00,
2013-03-22 03:33:00,25.2,16.1,29.63,NW,310,1.0,7.0,68,0.00,OVC,,0.00,WeatherDisplay:10.37,2013-03-22 07:33:00,
2013-03-22 03:43:00,24.9,15.8,29.63,NW,311,6.0,10.0,68,0.00,OVC,,0.00,WeatherDisplay:10.37,2013-03-22 07:43:00,
2013-03-22 03:53:00,24.8,16.4,29.62,WNW,290,1.0,10.0,70,0.00,OVC,,0.00,WeatherDisplay:10.37,2013-03-22 07:53:00,
2013-03-22 04:03:00,24.6,15.9,29.62,NW,304,1.0,10.0,69,0.00,CLR,,0.00,WeatherDisplay:10.37,2013-03-22 08:03:00,
2013-03-22 04:13:00,24.4,16.0,29.62,WNW,289,3.0,9.0,70,0.00,CLR,,0.00,WeatherDisplay:10.37,2013-03-22 08:13:00,
2013-03-22 04:23:00,24.1,15.7,29.62,NW,309,2.0,7.0,70,0.00,CLR,,0.00,WeatherDisplay:10.37,2013-03-22 08:23:00,
2013-03-22 04:33:00,23.9,15.5,29.62,WNW,302,3.0,7.0,70,0.00,CLR,,0.00,WeatherDisplay:10.37,2013-03-22 08:33:00,
2013-03-22 04:43:00,23.8,15.4,29.62,WNW,293,2.0,6.0,70,0.00,CLR,,0.00,WeatherDisplay:10.37,2013-03-22 08:43:00,
2013-03-22 04:53:00,23.5,15.1,29.62,NW,311,2.0,5.0,70,0.00,CLR,,0.00,WeatherDisplay:10.37,2013-03-22 08:53:00,
2013-03-22 05:03:00,23.3,15.0,29.62,WNW,290,2.0,12.0,70,0.00,CLR,,0.00,WeatherDisplay:10.37,2013-03-22 09:03:00,
2013-03-22 05:13:00,23.2,14.9,29.63,WNW,292,3.0,7.0,70,0.00,CLR,,0.00,WeatherDisplay:10.37,2013-03-22 09:13:00,
2013-03-22 05:23:00,23.0,14.7,29.63,NW,326,5.0,12.0,70,0.00,CLR,,0.00,WeatherDisplay:10.37,2013-03-22 09:23:00,
2013-03-22 05:33:00,23.2,14.2,29.63,NNW,347,1.0,7.0,68,0.00,CLR,,0.00,WeatherDisplay:10.37,2013-03-22 09:33:00,
2013-03-22 05:43:00,23.0,13.7,29.63,NW,317,2.0,7.0,67,0.00,CLR,,0.00,WeatherDisplay:10.37,2013-03-22 09:43:00,
2013-03-22 05:53:00,22.7,13.7,29.63,NW,315,3.0,6.0,68,0.00,CLR,,0.00,WeatherDisplay:10.37,2013-03-22 09:53:00,
2013-03-22 06:03:00,22.6,13.6,29.64,NNW,328,1.0,7.0,68,0.00,CLR,,0.00,WeatherDisplay:10.37,2013-03-22 10:03:00,
2013-03-22 06:13:00,22.4,13.4,29.64,NW,325,2.0,5.0,68,0.00,CLR,,0.00,WeatherDisplay:10.37,2013-03-22 10:13:00,
2013-03-22 06:23:00,22.3,13.7,29.64,NW,319,3.0,6.0,69,0.00,CLR,,0.00,WeatherDisplay:10.37,2013-03-22 10:23:00,
2013-03-22 06:33:00,22.0,13.4,29.65,NW,318,2.0,12.0,69,0.00,CLR,,0.00,WeatherDisplay:10.37,2013-03-22 10:33:00,
2013-03-22 06:43:00,22.1,13.1,29.65,NNW,329,5.0,9.0,68,0.00,CLR,,0.00,WeatherDisplay:10.37,2013-03-22 10:43:00,
2013-03-22 06:53:00,22.4,13.1,29.65,NW,311,6.0,12.0,67,0.00,CLR,,0.00,WeatherDisplay:10.37,2013-03-22 10:53:00,
2013-03-22 07:03:00,22.3,13.3,29.65,NW,309,3.0,13.0,68,0.00,CLR,,0.00,WeatherDisplay:10.37,2013-03-22 11:03:00,
2013-03-22 07:13:00,21.8,13.2,29.66,WNW,296,2.0,5.0,69,0.00,CLR,,0.00,WeatherDisplay:10.37,2013-03-22 11:13:00,
2013-03-22 07:23:00,21.7,13.4,29.66,WNW,292,3.0,7.0,70,0.00,CLR,,0.00,WeatherDisplay:10.37,2013-03-22 11:23:00,
2013-03-22 07:33:00,22.0,13.4,29.66,WNW,283,2.0,6.0,69,0.00,CLR,,0.00,WeatherDisplay:10.37,2013-03-22 11:33:00,
2013-03-22 07:43:00,22.4,13.4,29.66,WNW,296,3.0,6.0,68,0.00,CLR,,0.00,WeatherDisplay:10.37,2013-03-22 11:43:00,
2013-03-22 07:53:00,22.9,13.5,29.67,WNW,293,2.0,7.0,67,0.00,CLR,,0.00,WeatherDisplay:10.37,2013-03-22 11:53:00,
2013-03-22 08:03:00,23.2,13.5,29.67,NW,312,3.0,7.0,66,0.00,CLR,,0.00,WeatherDisplay:10.37,2013-03-22 12:03:00,
2013-03-22 08:13:00,23.3,13.3,29.67,NW,305,1.0,12.0,65,0.00,CLR,,0.00,WeatherDisplay:10.37,2013-03-22 12:13:00,
2013-03-22 08:23:00,23.6,12.8,29.67,NNW,332,3.0,5.0,63,0.00,CLR,,0.00,WeatherDisplay:10.37,2013-03-22 12:23:00,
2013-03-22 08:33:00,23.9,12.8,29.67,WNW,291,2.0,7.0,62,0.00,CLR,,0.00,WeatherDisplay:10.37,2013-03-22 12:33:00,
2013-03-22 08:43:00,24.2,13.4,29.67,NW,305,1.0,6.0,63,0.00,CLR,,0.00,WeatherDisplay:10.37,2013-03-22 12:43:00,
2013-03-22 09:03:00,25.7,12.9,29.67,WNW,300,2.0,8.0,58,0.00,CLR,,0.00,WeatherDisplay:10.37,2013-03-22 13:03:00,
2013-03-22 09:13:00,26.3,13.1,29.67,WNW,287,2.0,12.0,57,0.00,CLR,,0.00,WeatherDisplay:10.37,2013-03-22 13:13:00,
2013-03-22 09:23:00,26.6,13.4,29.67,WNW,287,5.0,10.0,57,0.00,CLR,,0.00,WeatherDisplay:10.37,2013-03-22 13:23:00,
2013-03-22 09:33:00,26.9,13.3,29.67,WNW,294,5.0,9.0,56,0.00,CLR,,0.00,WeatherDisplay:10.37,2013-03-22 13:33:00,
2013-03-22 09:43:00,27.2,14.0,29.67,NW,312,3.0,10.0,57,0.00,CLR,,0.00,WeatherDisplay:10.37,2013-03-22 13:43:00,
2013-03-22 09:53:00,27.6,13.5,29.67,West,279,6.0,14.0,55,0.00,CLR,,0.00,WeatherDisplay:10.37,2013-03-22 13:53:00,
2013-03-22 10:03:00,28.2,14.1,29.67,WNW,292,5.0,14.0,55,0.00,CLR,,0.00,WeatherDisplay:10.37,2013-03-22 14:03:00,
2013-03-22 10:13:00,28.8,14.2,29.67,WNW,284,8.0,13.0,54,0.00,CLR,,0.00,WeatherDisplay:10.37,2013-03-22 14:13:00,
2013-03-22 10:23:00,29.4,15.6,29.67,WNW,283,3.0,12.0,56,0.00,CLR,,0.00,WeatherDisplay:10.37,2013-03-22 14:23:00,
2013-03-22 10:33:00,30.0,15.8,29.67,NW,305,5.0,14.0,55,0.00,CLR,,0.00,WeatherDisplay:10.37,2013-03-22 14:33:00,
2013-03-22 10:43:00,30.2,16.3,29.67,West,274,5.0,13.0,56,0.00,CLR,,0.00,WeatherDisplay:10.37,2013-03-22 14:43:00,
2013-03-22 10:53:00,30.3,15.7,29.67,West,281,6.0,15.0,54,0.00,CLR,,0.00,WeatherDisplay:10.37,2013-03-22 14:53:00,
2013-03-22 11:03:00,30.8,16.5,29.67,WNW,288,8.0,14.0,55,0.00,CLR,,0.00,WeatherDisplay:10.37,2013-03-22 15:03:00,
2013-03-22 11:13:00,30.9,15.8,29.67,West,273,8.0,12.0,53,0.00,CLR,,0.00,WeatherDisplay:10.37,2013-03-22 15:13:00,
2013-03-22 11:23:00,31.3,16.9,29.67,WNW,296,6.0,12.0,55,0.00,CLR,,0.00,WeatherDisplay:10.37,2013-03-22 15:23:00,
2013-03-22 11:33:00,31.6,16.0,29.67,WNW,299,7.0,13.0,52,0.00,CLR,,0.00,WeatherDisplay:10.37,2013-03-22 15:33:00,
2013-03-22 11:43:00,31.6,16.8,29.67,WNW,286,6.0,12.0,54,0.00,CLR,,0.00,WeatherDisplay:10.37,2013-03-22 15:43:00,
2013-03-22 11:53:00,32.3,17.9,29.67,WNW,292,2.0,12.0,55,0.00,CLR,,0.00,WeatherDisplay:10.37,2013-03-22 15:53:00,
2013-03-22 12:03:00,32.2,17.0,29.67,West,273,6.0,14.0,53,0.00,CLR,,0.00,WeatherDisplay:10.37,2013-03-22 16:03:00,
2013-03-22 12:13:00,32.2,16.5,29.67,West,266,9.0,16.0,52,0.00,SCT,,0.00,WeatherDisplay:10.37,2013-03-22 16:13:00,
2013-03-22 12:23:00,32.8,16.6,29.67,WNW,296,3.0,12.0,51,0.01,RA,,0.01,WeatherDisplay:10.37,2013-03-22 16:23:00,
2013-03-22 12:33:00,33.2,16.5,29.66,WNW,300,8.0,15.0,50,0.00,SCT,,0.01,WeatherDisplay:10.37,2013-03-22 16:33:00,
2013-03-22 12:43:00,34.7,17.9,29.66,WNW,289,2.0,15.0,50,0.00,SCT,,0.01,WeatherDisplay:10.37,2013-03-22 16:43:00,
2013-03-22 12:53:00,33.8,18.5,29.66,West,265,2.0,14.0,53,0.00,SCT,,0.01,WeatherDisplay:10.37,2013-03-22 16:53:00,
2013-03-22 13:03:00,34.3,17.6,29.66,West,268,6.0,12.0,50,0.00,SCT,,0.01,WeatherDisplay:10.37,2013-03-22 17:03:00,
2013-03-22 13:13:00,35.1,18.7,29.66,West,277,5.0,12.0,51,0.01,RA,,0.02,WeatherDisplay:10.37,2013-03-22 17:13:00,
2013-03-22 13:23:00,34.5,18.2,29.66,West,272,7.0,18.0,51,0.00,BKN,,0.02,WeatherDisplay:10.37,2013-03-22 17:23:00,
2013-03-22 13:33:00,34.2,17.5,29.66,West,276,10.0,22.0,50,0.00,BKN,,0.02,WeatherDisplay:10.37,2013-03-22 17:33:00,
2013-03-22 13:43:00,33.7,17.0,29.66,West,275,7.0,17.0,50,0.00,BKN,,0.02,WeatherDisplay:10.37,2013-03-22 17:43:00,
2013-03-22 13:53:00,33.4,17.7,29.66,West,278,2.0,16.0,52,0.01,RA,,0.03,WeatherDisplay:10.37,2013-03-22 17:53:00,
2013-03-22 14:03:00,34.4,16.7,29.66,West,271,9.0,15.0,48,0.00,BKN,,0.03,WeatherDisplay:10.37,2013-03-22 18:03:00,
2013-03-22 14:13:00,33.4,18.5,29.66,WNW,284,8.0,20.0,54,0.00,OVC,,0.03,WeatherDisplay:10.37,2013-03-22 18:13:00,
2013-03-22 14:23:00,34.2,16.6,29.65,West,272,6.0,17.0,48,0.00,OVC,,0.03,WeatherDisplay:10.37,2013-03-22 18:23:00,
2013-03-22 14:33:00,35.4,17.7,29.65,West,267,8.0,20.0,48,0.00,OVC,,0.03,WeatherDisplay:10.37,2013-03-22 18:33:00,
2013-03-22 14:43:00,35.1,17.8,29.65,WNW,288,7.0,16.0,49,0.00,OVC,,0.03,WeatherDisplay:10.37,2013-03-22 18:43:00,
2013-03-22 14:53:00,34.1,16.0,29.65,WNW,287,6.0,17.0,47,0.00,OVC,,0.03,WeatherDisplay:10.37,2013-03-22 18:53:00,
2013-03-22 15:03:00,34.6,16.9,29.65,West,270,5.0,20.0,48,0.00,OVC,,0.03,WeatherDisplay:10.37,2013-03-22 19:03:00,
2013-03-22 15:13:00,34.4,17.2,29.65,WNW,299,6.0,20.0,49,0.00,BKN,,0.03,WeatherDisplay:10.37,2013-03-22 19:13:00,
2013-03-22 15:23:00,34.1,17.4,29.65,West,274,3.0,13.0,50,0.00,BKN,,0.03,WeatherDisplay:10.37,2013-03-22 19:23:00,
2013-03-22 15:33:00,34.4,18.1,29.65,NW,304,3.0,16.0,51,0.00,BKN,,0.03,WeatherDisplay:10.37,2013-03-22 19:33:00,
2013-03-22 15:43:00,34.5,16.8,29.64,WNW,283,3.0,15.0,48,0.00,BKN,,0.03,WeatherDisplay:10.37,2013-03-22 19:43:00,
2013-03-22 15:53:00,35.6,16.8,29.65,West,271,5.0,20.0,46,0.00,BKN,,0.03,WeatherDisplay:10.37,2013-03-22 19:53:00,
2013-03-22 16:03:00,35.1,16.4,29.65,WSW,254,7.0,25.0,46,0.01,RA,,0.04,WeatherDisplay:10.37,2013-03-22 20:03:00,
2013-03-22 16:13:00,34.7,17.9,29.65,West,269,3.0,17.0,50,0.00,BKN,,0.04,WeatherDisplay:10.37,2013-03-22 20:13:00,
2013-03-22 16:23:00,35.0,18.2,29.65,West,275,8.0,20.0,50,0.00,BKN,,0.04,WeatherDisplay:10.37,2013-03-22 20:23:00,
2013-03-22 16:33:00,34.1,17.8,29.65,West,271,7.0,26.0,51,0.00,BKN,,0.04,WeatherDisplay:10.37,2013-03-22 20:33:00,
2013-03-22 16:43:00,34.3,19.8,29.66,West,278,9.0,16.0,55,0.00,BKN,,0.04,WeatherDisplay:10.37,2013-03-22 20:43:00,
2013-03-22 16:53:00,34.0,20.3,29.66,WSW,250,8.0,22.0,57,0.00,BKN,,0.04,WeatherDisplay:10.37,2013-03-22 20:53:00,
2013-03-22 17:03:00,33.5,20.7,29.66,West,267,7.0,16.0,59,0.00,BKN,,0.04,WeatherDisplay:10.37,2013-03-22 21:03:00,
2013-03-22 17:13:00,33.4,21.0,29.66,West,277,5.0,12.0,60,0.00,OVC,,0.04,WeatherDisplay:10.37,2013-03-22 21:13:00,
2013-03-22 17:23:00,33.5,21.1,29.67,WNW,283,6.0,12.0,60,0.00,OVC,,0.04,WeatherDisplay:10.37,2013-03-22 21:23:00,
2013-03-22 17:33:00,33.4,20.6,29.67,West,263,6.0,15.0,59,0.00,OVC,,0.04,WeatherDisplay:10.37,2013-03-22 21:33:00,
2013-03-22 17:43:00,32.9,20.1,29.67,West,262,6.0,26.0,59,0.00,OVC,,0.04,WeatherDisplay:10.37,2013-03-22 21:43:00,
2013-03-22 17:53:00,32.8,20.4,29.68,West,276,6.0,22.0,60,0.00,OVC,,0.04,WeatherDisplay:10.37,2013-03-22 21:53:00,
2013-03-22 18:03:00,32.8,20.8,29.68,WNW,287,5.0,14.0,61,0.00,OVC,,0.04,WeatherDisplay:10.37,2013-03-22 22:03:00,
2013-03-22 18:13:00,32.3,21.8,29.68,West,269,3.0,13.0,65,0.00,OVC,,0.04,WeatherDisplay:10.37,2013-03-22 22:13:00,
2013-03-22 18:23:00,31.6,22.3,29.68,WSW,257,5.0,12.0,68,0.00,OVC,,0.04,WeatherDisplay:10.37,2013-03-22 22:23:00,
2013-03-22 18:33:00,31.5,22.5,29.69,West,262,2.0,13.0,69,0.00,OVC,,0.04,WeatherDisplay:10.37,2013-03-22 22:33:00,
2013-03-22 18:43:00,31.2,22.5,29.69,West,265,5.0,9.0,70,0.00,OVC,,0.04,WeatherDisplay:10.37,2013-03-22 22:43:00,
2013-03-22 18:53:00,31.0,22.7,29.70,West,266,2.0,10.0,71,0.00,OVC,,0.04,WeatherDisplay:10.37,2013-03-22 22:53:00,
2013-03-22 19:03:00,31.2,22.5,29.70,West,269,2.0,10.0,70,0.00,OVC,,0.04,WeatherDisplay:10.37,2013-03-22 23:03:00,
2013-03-22 19:13:00,31.2,21.9,29.70,WNW,289,6.0,12.0,68,0.00,-SN,,0.04,WeatherDisplay:10.37,2013-03-22 23:13:00,
2013-03-22 19:23:00,31.3,21.6,29.71,WSW,258,2.0,12.0,67,0.00,-SN,,0.04,WeatherDisplay:10.37,2013-03-22 23:23:00,
2013-03-22 19:33:00,31.3,20.2,29.71,WSW,252,7.0,16.0,63,0.00,-SN,,0.04,WeatherDisplay:10.37,2013-03-22 23:33:00,
2013-03-22 19:43:00,31.3,19.4,29.71,West,272,8.0,20.0,61,0.00,-SN,,0.04,WeatherDisplay:10.37,2013-03-22 23:43:00,
2013-03-22 19:53:00,31.0,19.5,29.72,WSW,248,6.0,17.0,62,0.00,-SN,,0.04,WeatherDisplay:10.37,2013-03-22 23:53:00,
2013-03-22 20:03:00,30.9,19.4,29.72,West,263,8.0,16.0,62,0.00,-SN,,0.04,WeatherDisplay:10.37,2013-03-23 00:03:00,
2013-03-22 20:13:00,30.6,19.8,29.72,WSW,258,7.0,15.0,64,0.00,FEW,,0.04,WeatherDisplay:10.37,2013-03-23 00:13:00,
2013-03-22 20:23:00,30.3,19.9,29.73,WNW,300,7.0,15.0,65,0.00,FEW,,0.04,WeatherDisplay:10.37,2013-03-23 00:23:00,
2013-03-22 20:43:00,30.0,19.3,29.73,WNW,296,7.0,14.0,64,0.00,FEW,,0.04,WeatherDisplay:10.37,2013-03-23 00:43:00,
2013-03-22 20:53:00,29.8,19.5,29.74,West,278,6.0,14.0,65,0.00,FEW,,0.04,WeatherDisplay:10.37,2013-03-23 00:53:00,
2013-03-22 21:03:00,29.5,19.2,29.74,West,260,5.0,13.0,65,0.00,FEW,,0.04,WeatherDisplay:10.37,2013-03-23 01:03:00,
2013-03-22 21:13:00,29.2,18.9,29.73,West,275,3.0,13.0,65,0.00,CLR,,0.04,WeatherDisplay:10.37,2013-03-23 01:13:00,
2013-03-22 21:23:00,29.1,18.4,29.73,West,269,5.0,13.0,64,0.00,CLR,,0.04,WeatherDisplay:10.37,2013-03-23 01:23:00,
2013-03-22 21:33:00,28.9,17.9,29.73,West,275,7.0,20.0,63,0.00,CLR,,0.04,WeatherDisplay:10.37,2013-03-23 01:33:00,
2013-03-22 21:43:00,28.6,17.6,29.74,West,267,5.0,14.0,63,0.00,CLR,,0.04,WeatherDisplay:10.37,2013-03-23 01:43:00,
2013-03-22 21:53:00,28.5,17.5,29.74,West,273,9.0,17.0,63,0.00,CLR,,0.04,WeatherDisplay:10.37,2013-03-23 01:53:00,
2013-03-22 22:03:00,28.3,17.7,29.75,West,262,7.0,18.0,64,0.00,CLR,,0.04,WeatherDisplay:10.37,2013-03-23 02:03:00,
2013-03-22 22:13:00,28.2,17.6,29.75,West,269,8.0,15.0,64,0.00,CLR,,0.04,WeatherDisplay:10.37,2013-03-23 02:13:00,
2013-03-22 22:23:00,27.9,17.6,29.75,West,276,7.0,15.0,65,0.00,CLR,,0.04,WeatherDisplay:10.37,2013-03-23 02:23:00,
2013-03-22 22:33:00,27.8,17.9,29.75,WNW,293,6.0,15.0,66,0.00,CLR,,0.04,WeatherDisplay:10.37,2013-03-23 02:33:00,
2013-03-22 22:43:00,27.6,17.7,29.74,West,280,7.0,14.0,66,0.00,CLR,,0.04,WeatherDisplay:10.37,2013-03-23 02:43:00,
2013-03-22 22:53:00,27.5,18.0,29.75,West,269,5.0,15.0,67,0.00,CLR,,0.04,WeatherDisplay:10.37,2013-03-23 02:53:00,
2013-03-22 23:03:00,27.3,18.1,29.75,West,266,6.0,12.0,68,0.00,CLR,,0.04,WeatherDisplay:10.37,2013-03-23 03:03:00,
2013-03-22 23:13:00,27.2,18.0,29.75,West,267,5.0,12.0,68,0.00,CLR,,0.04,WeatherDisplay:10.37,2013-03-23 03:13:00,
2013-03-22 23:23:00,27.2,18.0,29.75,West,276,3.0,12.0,68,0.00,CLR,,0.04,WeatherDisplay:10.37,2013-03-23 03:23:00,
2013-03-22 23:33:00,27.2,18.0,29.75,West,274,7.0,13.0,68,0.00,CLR,,0.04,WeatherDisplay:10.37,2013-03-23 03:33:00,
2013-03-22 23:43:00,27.2,18.4,29.76,WNW,283,5.0,12.0,69,0.00,CLR,,0.04,WeatherDisplay:10.37,2013-03-23 03:43:00,
2013-03-22 23:53:00,27.2,18.4,29.76,WNW,283,3.0,12.0,69,0.00,CLR,,0.04,WeatherDisplay:10.37,2013-03-23 03:53:00,